עמוד ראשי
METAR-TAF:

METAR-TAF

שדות תעופה :

נמל התעופה הבינלאומי בחריין

בחריין, בחריין

קו רוחב: 26-16N, קו אורך: 050-39E, גובה: 2מטר

תצפית מזג אוויר נוכחית

הדו"ח נערך לפני 29דקות, בשעה 20:30 UTC
רוח 2קשר עם כיוונים משתנים
טמפרטורת 37 צלסיוס
לחות 18%
לחץ 1000 hPa
ראות 10 קילומטר או יותר
ללא עננים שבסיסם נמוך מ 5000 רגל או קומולונימבוס

METAR: OBBI 132030Z VRB02KT CAVOK 37/09 Q1000 NOSIG

זמן: 23:59 (20:59 UTC)

תחזית

הדו"ח נערך לפני 3 שעות ו 59דקות, בשעה 17:00 UTC
תחזית בתוקף מ 13 ב 18 UTC עד 15 ב 00 UTC
רוח 5קשר עם כיוונים משתנים
ראות 10 קילומטר או יותר
ללא עננים שבסיסם נמוך מ 5000 רגל או קומולונימבוס
יעשה מ
14 ב 09 UTC עד 14 ב 11 UTC
רוח 10קשר מכיוון צפון-מזרח
יעשה מ
14 ב 15 UTC עד 14 ב 17 UTC
רוח 5קשר עם כיוונים משתנים

TAF: OBBI 131700Z 1318/1500 VRB05KT CAVOK BECMG 1409/1411 04010KT BECMG 1415/1417 VRB05KT

תצפיות ותחזיות מזג אוויר לגבי יותר מ- 4,000 שדות תעופה ברחבי העולם. דוחות METAR ו- TAF.

התחנות הזמינות מסומנות בנקודות צהובות ואדומות על גבי המפה.

העבר את העכבר לנקודה הצבעונית על מנת לראות את שם התחנה.

לאחר מכן, לחץ כדי לראות את תוכן ואת תחזיות מזג האוויר.

כדי לשנות את המפה: לחץ על הכפתורים הירוקים עם הפלוס השחור כדי להתקרב; על הכפתור הירוק עם המקף כדי להתרחק; או בחיצים הירוקים למפות סמוכות.


METAR-TAF: